sensor_id;sensor_type;location;lat;lon;timestamp;pressure;altitude;pressure_sealevel;temperature;humidity
8699;BME280;4386;51.236;6.742;2023-03-13T00:00:06;100020.75;;;11.67;75.09
8699;BME280;4386;51.236;6.742;2023-03-13T00:01:24;100026.63;;;11.71;75.13
8699;BME280;4386;51.236;6.742;2023-03-13T00:02:26;100020.47;;;11.70;75.35
8699;BME280;4386;51.236;6.742;2023-03-13T00:03:29;100013.19;;;11.72;75.14
8699;BME280;4386;51.236;6.742;2023-03-13T00:04:32;100014.88;;;11.73;75.11
8699;BME280;4386;51.236;6.742;2023-03-13T00:05:34;100011.38;;;11.73;75.12
8699;BME280;4386;51.236;6.742;2023-03-13T00:06:38;100009.56;;;11.73;75.30
8699;BME280;4386;51.236;6.742;2023-03-13T00:07:42;100005.94;;;11.74;75.26
8699;BME280;4386;51.236;6.742;2023-03-13T00:08:44;100002.28;;;11.75;75.33
8699;BME280;4386;51.236;6.742;2023-03-13T00:09:48;99999.63;;;11.75;75.49
8699;BME280;4386;51.236;6.742;2023-03-13T00:10:49;100000.66;;;11.74;75.58
8699;BME280;4386;51.236;6.742;2023-03-13T00:11:52;99987.22;;;11.76;75.54
8699;BME280;4386;51.236;6.742;2023-03-13T00:12:55;99996.00;;;11.76;75.44
8699;BME280;4386;51.236;6.742;2023-03-13T00:13:58;99992.22;;;11.79;75.73
8699;BME280;4386;51.236;6.742;2023-03-13T00:15:01;99988.59;;;11.80;75.65
8699;BME280;4386;51.236;6.742;2023-03-13T00:16:05;99981.47;;;11.80;75.92
8699;BME280;4386;51.236;6.742;2023-03-13T00:17:09;99984.13;;;11.80;75.85
8699;BME280;4386;51.236;6.742;2023-03-13T00:18:10;99976.00;;;11.82;75.83
8699;BME280;4386;51.236;6.742;2023-03-13T00:19:14;99978.53;;;11.83;75.86
8699;BME280;4386;51.236;6.742;2023-03-13T00:20:16;99982.88;;;11.84;75.79
8699;BME280;4386;51.236;6.742;2023-03-13T00:21:21;99982.88;;;11.84;75.89
8699;BME280;4386;51.236;6.742;2023-03-13T00:22:23;99979.19;;;11.85;75.94
8699;BME280;4386;51.236;6.742;2023-03-13T00:23:26;99976.53;;;11.85;75.95
8699;BME280;4386;51.236;6.742;2023-03-13T00:24:27;99975.56;;;11.86;76.12
8699;BME280;4386;51.236;6.742;2023-03-13T00:25:30;99971.09;;;11.87;76.08
8699;BME280;4386;51.236;6.742;2023-03-13T00:26:32;99971.09;;;11.87;76.09
8699;BME280;4386;51.236;6.742;2023-03-13T00:27:34;99958.81;;;11.86;76.11
8699;BME280;4386;51.236;6.742;2023-03-13T00:28:37;99960.63;;;11.85;76.15
8699;BME280;4386;51.236;6.742;2023-03-13T00:29:40;99957.00;;;11.86;76.26
8699;BME280;4386;51.236;6.742;2023-03-13T00:30:42;99950.84;;;11.86;76.32
8699;BME280;4386;51.236;6.742;2023-03-13T00:31:44;99949.03;;;11.86;76.26
8699;BME280;4386;51.236;6.742;2023-03-13T00:32:46;99942.03;;;11.85;76.32
8699;BME280;4386;51.236;6.742;2023-03-13T00:33:52;99941.06;;;11.86;76.51
8699;BME280;4386;51.236;6.742;2023-03-13T00:34:55;99945.53;;;11.86;76.41
8699;BME280;4386;51.236;6.742;2023-03-13T00:35:59;99946.38;;;11.86;76.81
8699;BME280;4386;51.236;6.742;2023-03-13T00:37:01;99933.09;;;11.86;76.60
8699;BME280;4386;51.236;6.742;2023-03-13T00:38:04;99939.38;;;11.85;76.57
8699;BME280;4386;51.236;6.742;2023-03-13T00:39:05;99930.44;;;11.86;76.65
8699;BME280;4386;51.236;6.742;2023-03-13T00:40:09;99934.91;;;11.86;76.84
8699;BME280;4386;51.236;6.742;2023-03-13T00:41:14;99928.75;;;11.85;76.74
8699;BME280;4386;51.236;6.742;2023-03-13T00:42:16;99937.56;;;11.86;77.05
8699;BME280;4386;51.236;6.742;2023-03-13T00:43:19;99941.06;;;11.86;77.02
8699;BME280;4386;51.236;6.742;2023-03-13T00:44:26;99934.06;;;11.85;76.70
8699;BME280;4386;51.236;6.742;2023-03-13T00:45:29;99937.56;;;11.86;77.08
8699;BME280;4386;51.236;6.742;2023-03-13T00:46:30;99930.44;;;11.86;77.29
8699;BME280;4386;51.236;6.742;2023-03-13T00:47:33;99923.44;;;11.85;77.11
8699;BME280;4386;51.236;6.742;2023-03-13T00:48:35;99929.47;;;11.87;77.38
8699;BME280;4386;51.236;6.742;2023-03-13T00:49:38;99935.75;;;11.86;77.37
8699;BME280;4386;51.236;6.742;2023-03-13T00:50:42;99928.63;;;11.87;77.52
8699;BME280;4386;51.236;6.742;2023-03-13T00:51:44;99929.47;;;11.87;77.54
8699;BME280;4386;51.236;6.742;2023-03-13T00:52:56;99927.63;;;11.88;77.63
8699;BME280;4386;51.236;6.742;2023-03-13T00:53:58;99924.16;;;11.87;77.89
8699;BME280;4386;51.236;6.742;2023-03-13T00:55:01;99921.50;;;11.87;77.52
8699;BME280;4386;51.236;6.742;2023-03-13T00:56:06;99914.34;;;11.88;77.72
8699;BME280;4386;51.236;6.742;2023-03-13T00:57:09;99915.19;;;11.88;77.95
8699;BME280;4386;51.236;6.742;2023-03-13T00:58:11;99911.56;;;11.89;77.74
8699;BME280;4386;51.236;6.742;2023-03-13T00:59:13;99913.38;;;11.89;77.96
8699;BME280;4386;51.236;6.742;2023-03-13T01:00:16;99905.41;;;11.89;78.16
8699;BME280;4386;51.236;6.742;2023-03-13T01:01:21;99906.25;;;11.89;78.10
8699;BME280;4386;51.236;6.742;2023-03-13T01:02:23;99904.56;;;11.88;78.27
8699;BME280;4386;51.236;6.742;2023-03-13T01:03:26;99903.59;;;11.89;78.18
8699;BME280;4386;51.236;6.742;2023-03-13T01:04:27;99908.91;;;11.89;78.29
8699;BME280;4386;51.236;6.742;2023-03-13T01:05:30;99906.25;;;11.89;78.54
8699;BME280;4386;51.236;6.742;2023-03-13T01:06:35;99900.94;;;11.89;78.65
8699;BME280;4386;51.236;6.742;2023-03-13T01:07:37;99899.13;;;11.90;78.55
8699;BME280;4386;51.236;6.742;2023-03-13T01:08:39;99902.63;;;11.90;78.81
8699;BME280;4386;51.236;6.742;2023-03-13T01:09:42;99899.13;;;11.90;78.76
8699;BME280;4386;51.236;6.742;2023-03-13T01:10:43;99894.66;;;11.90;78.77
8699;BME280;4386;51.236;6.742;2023-03-13T01:11:46;99893.81;;;11.90;78.89
8699;BME280;4386;51.236;6.742;2023-03-13T01:12:47;99892.97;;;11.89;78.87
8699;BME280;4386;51.236;6.742;2023-03-13T01:13:53;99892.97;;;11.89;78.92
8699;BME280;4386;51.236;6.742;2023-03-13T01:14:55;99881.69;;;11.87;79.01
8699;BME280;4386;51.236;6.742;2023-03-13T01:16:01;99875.38;;;11.88;79.18
8699;BME280;4386;51.236;6.742;2023-03-13T01:17:03;99875.38;;;11.88;79.37
8699;BME280;4386;51.236;6.742;2023-03-13T01:18:06;99874.69;;;11.86;79.32
8699;BME280;4386;51.236;6.742;2023-03-13T01:19:09;99869.38;;;11.86;79.12
8699;BME280;4386;51.236;6.742;2023-03-13T01:20:14;99870.22;;;11.87;79.28
8699;BME280;4386;51.236;6.742;2023-03-13T01:21:16;99866.72;;;11.86;79.50
8699;BME280;4386;51.236;6.742;2023-03-13T01:22:21;99865.03;;;11.85;79.59
8699;BME280;4386;51.236;6.742;2023-03-13T01:23:23;99862.38;;;11.85;79.58
8699;BME280;4386;51.236;6.742;2023-03-13T01:24:25;99857.91;;;11.86;79.54
8699;BME280;4386;51.236;6.742;2023-03-13T01:25:27;99864.06;;;11.86;79.39
8699;BME280;4386;51.236;6.742;2023-03-13T01:26:29;99858.75;;;11.86;79.98
8699;BME280;4386;51.236;6.742;2023-03-13T01:27:31;99850.78;;;11.86;79.76
8699;BME280;4386;51.236;6.742;2023-03-13T01:28:34;99848.97;;;11.87;79.74
8699;BME280;4386;51.236;6.742;2023-03-13T01:29:36;99852.47;;;11.87;79.72
8699;BME280;4386;51.236;6.742;2023-03-13T01:30:38;99852.47;;;11.87;80.02
8699;BME280;4386;51.236;6.742;2023-03-13T01:31:40;99855.81;;;11.89;79.68
8699;BME280;4386;51.236;6.742;2023-03-13T01:32:43;99850.50;;;11.89;79.92
8699;BME280;4386;51.236;6.742;2023-03-13T01:33:45;99855.81;;;11.89;80.12
8699;BME280;4386;51.236;6.742;2023-03-13T01:34:48;99848.69;;;11.90;79.85
8699;BME280;4386;51.236;6.742;2023-03-13T01:35:50;99848.69;;;11.90;79.72
8699;BME280;4386;51.236;6.742;2023-03-13T01:36:53;99845.84;;;11.91;79.80
8699;BME280;4386;51.236;6.742;2023-03-13T01:37:56;99845.03;;;11.91;79.82
8699;BME280;4386;51.236;6.742;2023-03-13T01:38:59;99837.88;;;11.91;79.88
8699;BME280;4386;51.236;6.742;2023-03-13T01:40:01;99845.72;;;11.93;79.95
8699;BME280;4386;51.236;6.742;2023-03-13T01:41:04;99833.41;;;11.92;79.85
8699;BME280;4386;51.236;6.742;2023-03-13T01:42:08;99831.47;;;11.94;79.75
8699;BME280;4386;51.236;6.742;2023-03-13T01:43:19;99830.63;;;11.93;80.08
8699;BME280;4386;51.236;6.742;2023-03-13T01:44:28;99833.41;;;11.92;79.92
8699;BME280;4386;51.236;6.742;2023-03-13T01:47:10;99828.94;;;11.92;80.01
8699;BME280;4386;51.236;6.742;2023-03-13T01:48:14;99823.63;;;11.92;80.27
8699;BME280;4386;51.236;6.742;2023-03-13T01:49:17;99821.97;;;11.91;80.20
8699;BME280;4386;51.236;6.742;2023-03-13T01:50:21;99824.63;;;11.91;80.26
8699;BME280;4386;51.236;6.742;2023-03-13T01:51:24;99821.97;;;11.91;80.37
8699;BME280;4386;51.236;6.742;2023-03-13T01:52:28;99817.50;;;11.92;80.60
8699;BME280;4386;51.236;6.742;2023-03-13T01:53:33;99815.00;;;11.90;80.76
8699;BME280;4386;51.236;6.742;2023-03-13T01:54:38;99802.69;;;11.89;80.67
8699;BME280;4386;51.236;6.742;2023-03-13T01:55:43;99798.53;;;11.87;81.08
8699;BME280;4386;51.236;6.742;2023-03-13T01:56:48;99807.34;;;11.87;81.41
8699;BME280;4386;51.236;6.742;2023-03-13T01:57:53;99795.03;;;11.86;81.35
8699;BME280;4386;51.236;6.742;2023-03-13T01:58:56;99795.19;;;11.85;81.52
8699;BME280;4386;51.236;6.742;2023-03-13T02:00:02;99801.63;;;11.82;81.74
8699;BME280;4386;51.236;6.742;2023-03-13T02:01:08;99796.31;;;11.82;82.03
8699;BME280;4386;51.236;6.742;2023-03-13T02:02:12;99787.69;;;11.80;82.30
8699;BME280;4386;51.236;6.742;2023-03-13T02:03:18;99782.38;;;11.80;82.57
8699;BME280;4386;51.236;6.742;2023-03-13T02:04:21;99779.00;;;11.78;82.50
8699;BME280;4386;51.236;6.742;2023-03-13T02:05:25;99776.34;;;11.78;82.75
8699;BME280;4386;51.236;6.742;2023-03-13T02:06:30;99776.34;;;11.78;83.00
8699;BME280;4386;51.236;6.742;2023-03-13T02:07:39;99773.03;;;11.76;83.06
8699;BME280;4386;51.236;6.742;2023-03-13T02:08:48;99775.69;;;11.76;83.02
8699;BME280;4386;51.236;6.742;2023-03-13T02:09:53;99769.53;;;11.76;83.19
8699;BME280;4386;51.236;6.742;2023-03-13T02:11:02;99759.91;;;11.75;83.41
8699;BME280;4386;51.236;6.742;2023-03-13T02:12:08;99757.41;;;11.73;83.44
8699;BME280;4386;51.236;6.742;2023-03-13T02:13:13;99755.59;;;11.74;83.57
8699;BME280;4386;51.236;6.742;2023-03-13T02:14:19;99758.38;;;11.72;83.82
8699;BME280;4386;51.236;6.742;2023-03-13T02:15:24;99760.06;;;11.73;83.94
8699;BME280;4386;51.236;6.742;2023-03-13T02:16:27;99751.25;;;11.73;84.17
8699;BME280;4386;51.236;6.742;2023-03-13T02:17:40;99751.13;;;11.74;84.13
8699;BME280;4386;51.236;6.742;2023-03-13T02:18:42;99744.97;;;11.74;84.22
8699;BME280;4386;51.236;6.742;2023-03-13T02:19:47;99737.84;;;11.74;84.65
8699;BME280;4386;51.236;6.742;2023-03-13T02:20:50;99736.00;;;11.75;84.68
8699;BME280;4386;51.236;6.742;2023-03-13T02:22:03;99743.97;;;11.75;84.75
8699;BME280;4386;51.236;6.742;2023-03-13T02:23:14;99736.00;;;11.75;84.83
8699;BME280;4386;51.236;6.742;2023-03-13T02:24:25;99739.50;;;11.75;85.14
8699;BME280;4386;51.236;6.742;2023-03-13T02:25:36;99736.84;;;11.75;84.81
8699;BME280;4386;51.236;6.742;2023-03-13T02:26:40;99737.69;;;11.76;85.16
8699;BME280;4386;51.236;6.742;2023-03-13T02:27:43;99730.56;;;11.76;85.06
8699;BME280;4386;51.236;6.742;2023-03-13T02:28:46;99735.88;;;11.76;85.29
8699;BME280;4386;51.236;6.742;2023-03-13T02:29:50;99734.91;;;11.77;85.45
8699;BME280;4386;51.236;6.742;2023-03-13T02:30:54;99737.56;;;11.77;85.38
8699;BME280;4386;51.236;6.742;2023-03-13T02:31:58;99735.72;;;11.78;85.33
8699;BME280;4386;51.236;6.742;2023-03-13T02:33:01;99741.03;;;11.78;85.44
8699;BME280;4386;51.236;6.742;2023-03-13T02:34:04;99723.28;;;11.78;85.60
8699;BME280;4386;51.236;6.742;2023-03-13T02:35:08;99725.94;;;11.78;85.74
8699;BME280;4386;51.236;6.742;2023-03-13T02:36:13;99721.47;;;11.79;85.55
8699;BME280;4386;51.236;6.742;2023-03-13T02:37:18;99712.66;;;11.78;85.63
8699;BME280;4386;51.236;6.742;2023-03-13T02:38:23;99712.66;;;11.78;86.12
8699;BME280;4386;51.236;6.742;2023-03-13T02:39:26;99710.00;;;11.78;85.83
8699;BME280;4386;51.236;6.742;2023-03-13T02:40:34;99710.84;;;11.79;86.03
8699;BME280;4386;51.236;6.742;2023-03-13T02:41:38;99701.91;;;11.80;86.09
8699;BME280;4386;51.236;6.742;2023-03-13T02:42:52;99704.69;;;11.78;86.30
8699;BME280;4386;51.236;6.742;2023-03-13T02:43:55;99696.72;;;11.78;86.28
8699;BME280;4386;51.236;6.742;2023-03-13T02:44:57;99708.03;;;11.80;86.23
8699;BME280;4386;51.236;6.742;2023-03-13T02:46:01;99702.75;;;11.80;86.18
8699;BME280;4386;51.236;6.742;2023-03-13T02:47:04;99700.09;;;11.80;86.48
8699;BME280;4386;51.236;6.742;2023-03-13T02:48:06;99706.22;;;11.81;86.36
8699;BME280;4386;51.236;6.742;2023-03-13T02:49:19;99703.56;;;11.81;86.51
8699;BME280;4386;51.236;6.742;2023-03-13T02:50:23;99692.97;;;11.81;86.63
8699;BME280;4386;51.236;6.742;2023-03-13T02:51:28;99696.41;;;11.81;86.55
8699;BME280;4386;51.236;6.742;2023-03-13T02:52:34;99694.59;;;11.82;86.71
8699;BME280;4386;51.236;6.742;2023-03-13T02:53:39;99695.63;;;11.81;86.98
8699;BME280;4386;51.236;6.742;2023-03-13T02:54:46;99691.09;;;11.81;86.61
8699;BME280;4386;51.236;6.742;2023-03-13T02:55:49;99686.50;;;11.83;86.86
8699;BME280;4386;51.236;6.742;2023-03-13T02:56:55;99684.81;;;11.82;86.83
8699;BME280;4386;51.236;6.742;2023-03-13T02:57:57;99681.19;;;11.83;87.04
8699;BME280;4386;51.236;6.742;2023-03-13T02:59:00;99675.03;;;11.83;87.03
8699;BME280;4386;51.236;6.742;2023-03-13T03:00:02;99678.53;;;11.83;87.33
8699;BME280;4386;51.236;6.742;2023-03-13T03:01:08;99679.38;;;11.84;87.14
8699;BME280;4386;51.236;6.742;2023-03-13T03:02:10;99679.19;;;11.85;87.16
8699;BME280;4386;51.236;6.742;2023-03-13T03:03:12;99677.56;;;11.84;87.19
8699;BME280;4386;51.236;6.742;2023-03-13T03:04:14;99668.59;;;11.85;87.30
8699;BME280;4386;51.236;6.742;2023-03-13T03:05:16;99653.50;;;11.86;87.40
8699;BME280;4386;51.236;6.742;2023-03-13T03:06:18;99653.34;;;11.87;87.52
8699;BME280;4386;51.236;6.742;2023-03-13T03:07:21;99647.03;;;11.88;87.59
8699;BME280;4386;51.236;6.742;2023-03-13T03:08:23;99637.44;;;11.87;87.51
8699;BME280;4386;51.236;6.742;2023-03-13T03:09:25;99639.06;;;11.88;87.44
8699;BME280;4386;51.236;6.742;2023-03-13T03:10:28;99635.56;;;11.88;87.74
8699;BME280;4386;51.236;6.742;2023-03-13T03:11:31;99638.09;;;11.89;87.69
8699;BME280;4386;51.236;6.742;2023-03-13T03:12:33;99643.41;;;11.89;87.81
8699;BME280;4386;51.236;6.742;2023-03-13T03:13:35;99645.91;;;11.91;87.80
8699;BME280;4386;51.236;6.742;2023-03-13T03:14:38;99653.03;;;11.90;87.96
8699;BME280;4386;51.236;6.742;2023-03-13T03:15:39;99652.03;;;11.91;88.07
8699;BME280;4386;51.236;6.742;2023-03-13T03:16:42;99655.53;;;11.92;88.00
8699;BME280;4386;51.236;6.742;2023-03-13T03:17:44;99653.72;;;11.92;88.11
8699;BME280;4386;51.236;6.742;2023-03-13T03:18:47;99660.69;;;11.93;87.92
8699;BME280;4386;51.236;6.742;2023-03-13T03:19:48;99657.03;;;11.94;88.28
8699;BME280;4386;51.236;6.742;2023-03-13T03:20:51;99659.69;;;11.94;88.32
8699;BME280;4386;51.236;6.742;2023-03-13T03:21:53;99658.72;;;11.95;88.30
8699;BME280;4386;51.236;6.742;2023-03-13T03:22:55;99656.75;;;11.97;88.11
8699;BME280;4386;51.236;6.742;2023-03-13T03:23:59;99642.47;;;11.98;88.37
8699;BME280;4386;51.236;6.742;2023-03-13T03:25:03;99648.63;;;11.99;88.56
8699;BME280;4386;51.236;6.742;2023-03-13T03:26:06;99647.78;;;11.98;88.33
8699;BME280;4386;51.236;6.742;2023-03-13T03:27:10;99646.78;;;11.99;88.65
8699;BME280;4386;51.236;6.742;2023-03-13T03:28:12;99639.66;;;12.00;88.54
8699;BME280;4386;51.236;6.742;2023-03-13T03:29:14;99630.69;;;12.01;88.56
8699;BME280;4386;51.236;6.742;2023-03-13T03:30:17;99638.53;;;12.02;88.44
8699;BME280;4386;51.236;6.742;2023-03-13T03:31:20;99643.00;;;12.02;88.52
8699;BME280;4386;51.236;6.742;2023-03-13T03:32:21;99643.84;;;12.02;88.56
8699;BME280;4386;51.236;6.742;2023-03-13T03:33:24;99650.81;;;12.04;88.69
8699;BME280;4386;51.236;6.742;2023-03-13T03:34:25;99647.00;;;12.06;88.59
8699;BME280;4386;51.236;6.742;2023-03-13T03:35:30;99643.38;;;12.07;88.74
8699;BME280;4386;51.236;6.742;2023-03-13T03:36:32;99647.69;;;12.08;88.70
8699;BME280;4386;51.236;6.742;2023-03-13T03:37:35;99650.19;;;12.10;88.65
8699;BME280;4386;51.236;6.742;2023-03-13T03:38:36;99646.53;;;12.11;88.88
8699;BME280;4386;51.236;6.742;2023-03-13T03:39:40;99646.38;;;12.12;88.76
8699;BME280;4386;51.236;6.742;2023-03-13T03:40:42;99642.75;;;12.13;88.74
8699;BME280;4386;51.236;6.742;2023-03-13T03:41:44;99645.22;;;12.15;88.83
8699;BME280;4386;51.236;6.742;2023-03-13T03:42:54;99643.28;;;12.17;88.63
8699;BME280;4386;51.236;6.742;2023-03-13T03:43:57;99642.25;;;12.18;88.84
8699;BME280;4386;51.236;6.742;2023-03-13T03:44:59;99633.31;;;12.19;88.85
8699;BME280;4386;51.236;6.742;2023-03-13T03:46:01;99632.16;;;12.21;88.81
8699;BME280;4386;51.236;6.742;2023-03-13T03:47:03;99638.31;;;12.22;88.88
8699;BME280;4386;51.236;6.742;2023-03-13T03:48:06;99632.16;;;12.21;88.74
8699;BME280;4386;51.236;6.742;2023-03-13T03:49:08;99631.84;;;12.24;88.99
8699;BME280;4386;51.236;6.742;2023-03-13T03:50:10;99626.38;;;12.26;88.82
8699;BME280;4386;51.236;6.742;2023-03-13T03:51:12;99630.72;;;12.27;88.88
8699;BME280;4386;51.236;6.742;2023-03-13T03:52:14;99642.16;;;12.27;88.68
8699;BME280;4386;51.236;6.742;2023-03-13T03:53:16;99636.69;;;12.29;88.91
8699;BME280;4386;51.236;6.742;2023-03-13T03:54:18;99628.72;;;12.29;88.83
8699;BME280;4386;51.236;6.742;2023-03-13T03:55:20;99638.19;;;12.31;88.88
8699;BME280;4386;51.236;6.742;2023-03-13T03:56:23;99648.00;;;12.31;89.00
8699;BME280;4386;51.236;6.742;2023-03-13T03:57:25;99650.50;;;12.32;88.91
8699;BME280;4386;51.236;6.742;2023-03-13T03:58:29;99647.66;;;12.34;88.88
8699;BME280;4386;51.236;6.742;2023-03-13T03:59:30;99644.03;;;12.35;88.81
8699;BME280;4386;51.236;6.742;2023-03-13T04:00:33;99649.22;;;12.36;88.79
8699;BME280;4386;51.236;6.742;2023-03-13T04:01:34;99641.06;;;12.38;89.01
8699;BME280;4386;51.236;6.742;2023-03-13T04:02:37;99649.72;;;12.40;88.96
8699;BME280;4386;51.236;6.742;2023-03-13T04:03:39;99647.88;;;12.40;88.93
8699;BME280;4386;51.236;6.742;2023-03-13T04:04:41;99654.88;;;12.41;89.05
8699;BME280;4386;51.236;6.742;2023-03-13T04:05:43;99654.03;;;12.41;89.00
8699;BME280;4386;51.236;6.742;2023-03-13T04:06:47;99648.56;;;12.42;88.84
8699;BME280;4386;51.236;6.742;2023-03-13T04:07:49;99642.25;;;12.43;89.17
8699;BME280;4386;51.236;6.742;2023-03-13T04:08:51;99647.41;;;12.45;89.01
8699;BME280;4386;51.236;6.742;2023-03-13T04:09:53;99638.47;;;12.46;89.20
8699;BME280;4386;51.236;6.742;2023-03-13T04:10:56;99634.78;;;12.47;89.01
8699;BME280;4386;51.236;6.742;2023-03-13T04:11:57;99632.97;;;12.47;89.16
8699;BME280;4386;51.236;6.742;2023-03-13T04:13:00;99631.00;;;12.49;89.02
8699;BME280;4386;51.236;6.742;2023-03-13T04:14:03;99617.72;;;12.49;89.25
8699;BME280;4386;51.236;6.742;2023-03-13T04:15:06;99627.34;;;12.50;89.18
8699;BME280;4386;51.236;6.742;2023-03-13T04:16:09;99620.19;;;12.51;89.06
8699;BME280;4386;51.236;6.742;2023-03-13T04:17:11;99621.88;;;12.52;89.28
8699;BME280;4386;51.236;6.742;2023-03-13T04:18:14;99620.06;;;12.52;89.16
8699;BME280;4386;51.236;6.742;2023-03-13T04:19:16;99622.38;;;12.56;89.04
8699;BME280;4386;51.236;6.742;2023-03-13T04:20:19;99620.56;;;12.56;89.08
8699;BME280;4386;51.236;6.742;2023-03-13T04:21:21;99618.56;;;12.58;89.19
8699;BME280;4386;51.236;6.742;2023-03-13T04:22:24;99615.91;;;12.58;88.97
8699;BME280;4386;51.236;6.742;2023-03-13T04:23:25;99618.56;;;12.58;88.99
8699;BME280;4386;51.236;6.742;2023-03-13T04:24:28;99605.13;;;12.60;88.98
8699;BME280;4386;51.236;6.742;2023-03-13T04:25:29;99603.28;;;12.60;89.12
8699;BME280;4386;51.236;6.742;2023-03-13T04:26:32;99605.94;;;12.60;89.18
8699;BME280;4386;51.236;6.742;2023-03-13T04:27:40;99619.25;;;12.60;89.01
8699;BME280;4386;51.236;6.742;2023-03-13T04:28:42;99610.28;;;12.61;88.93
8699;BME280;4386;51.236;6.742;2023-03-13T04:29:45;99616.25;;;12.63;89.02
8699;BME280;4386;51.236;6.742;2023-03-13T04:30:47;99610.94;;;12.63;88.97
8699;BME280;4386;51.236;6.742;2023-03-13T04:31:50;99616.94;;;12.65;89.14
8699;BME280;4386;51.236;6.742;2023-03-13T04:32:53;99604.50;;;12.66;89.33
8699;BME280;4386;51.236;6.742;2023-03-13T04:33:55;99613.31;;;12.66;89.05
8699;BME280;4386;51.236;6.742;2023-03-13T04:34:58;99608.78;;;12.67;89.12
8699;BME280;4386;51.236;6.742;2023-03-13T04:35:59;99611.31;;;12.68;89.19
8699;BME280;4386;51.236;6.742;2023-03-13T04:37:02;99613.97;;;12.68;89.14
8699;BME280;4386;51.236;6.742;2023-03-13T04:38:03;99616.63;;;12.68;89.12
8699;BME280;4386;51.236;6.742;2023-03-13T04:39:06;99609.50;;;12.69;89.10
8699;BME280;4386;51.236;6.742;2023-03-13T04:40:09;99602.34;;;12.69;89.06
8699;BME280;4386;51.236;6.742;2023-03-13T04:41:13;99596.03;;;12.70;89.19
8699;BME280;4386;51.236;6.742;2023-03-13T04:42:14;99603.00;;;12.71;89.26
8699;BME280;4386;51.236;6.742;2023-03-13T04:43:17;99595.03;;;12.71;89.39
8699;BME280;4386;51.236;6.742;2023-03-13T04:44:19;99608.19;;;12.73;89.06
8699;BME280;4386;51.236;6.742;2023-03-13T04:45:23;99596.53;;;12.74;88.89
8699;BME280;4386;51.236;6.742;2023-03-13T04:46:25;99597.38;;;12.74;88.98
8699;BME280;4386;51.236;6.742;2023-03-13T04:47:27;99596.38;;;12.75;89.22
8699;BME280;4386;51.236;6.742;2023-03-13T04:48:29;99598.22;;;12.75;89.33
8699;BME280;4386;51.236;6.742;2023-03-13T04:49:31;99594.56;;;12.76;89.22
8699;BME280;4386;51.236;6.742;2023-03-13T04:50:33;99597.22;;;12.76;89.21
8699;BME280;4386;51.236;6.742;2023-03-13T04:51:36;99597.03;;;12.77;89.15
8699;BME280;4386;51.236;6.742;2023-03-13T04:52:37;99606.53;;;12.80;89.28
8699;BME280;4386;51.236;6.742;2023-03-13T04:53:40;99607.34;;;12.80;89.27
8699;BME280;4386;51.236;6.742;2023-03-13T04:54:41;99596.41;;;12.83;89.25
8699;BME280;4386;51.236;6.742;2023-03-13T04:55:44;99591.91;;;12.84;89.40
8699;BME280;4386;51.236;6.742;2023-03-13T04:56:46;99601.56;;;12.85;89.34
8699;BME280;4386;51.236;6.742;2023-03-13T04:57:49;99604.75;;;12.88;89.32
8699;BME280;4386;51.236;6.742;2023-03-13T04:58:51;99585.09;;;12.89;89.54
8699;BME280;4386;51.236;6.742;2023-03-13T04:59:54;99584.31;;;12.89;89.40
8699;BME280;4386;51.236;6.742;2023-03-13T05:00:56;99592.94;;;12.91;89.63
8699;BME280;4386;51.236;6.742;2023-03-13T05:01:59;99588.44;;;12.91;89.37
8699;BME280;4386;51.236;6.742;2023-03-13T05:03:00;99599.75;;;12.93;89.33
8699;BME280;4386;51.236;6.742;2023-03-13T05:04:03;99586.44;;;12.93;89.42
8699;BME280;4386;51.236;6.742;2023-03-13T05:05:05;99597.09;;;12.93;89.29
8699;BME280;4386;51.236;6.742;2023-03-13T05:06:08;99590.59;;;12.96;89.33
8699;BME280;4386;51.236;6.742;2023-03-13T05:07:10;99591.28;;;12.98;89.26
8699;BME280;4386;51.236;6.742;2023-03-13T05:08:12;99580.47;;;12.99;89.27
8699;BME280;4386;51.236;6.742;2023-03-13T05:09:14;99581.16;;;13.01;89.27
8699;BME280;4386;51.236;6.742;2023-03-13T05:10:17;99573.19;;;13.01;89.35
8699;BME280;4386;51.236;6.742;2023-03-13T05:11:18;99570.53;;;13.01;89.53
8699;BME280;4386;51.236;6.742;2023-03-13T05:12:21;99570.34;;;13.03;89.14
8699;BME280;4386;51.236;6.742;2023-03-13T05:13:22;99569.50;;;13.02;89.58
8699;BME280;4386;51.236;6.742;2023-03-13T05:14:25;99556.91;;;13.04;89.56
8699;BME280;4386;51.236;6.742;2023-03-13T05:15:27;99567.34;;;13.06;89.29
8699;BME280;4386;51.236;6.742;2023-03-13T05:16:31;99559.22;;;13.07;89.32
8699;BME280;4386;51.236;6.742;2023-03-13T05:17:33;99556.41;;;13.09;89.06
8699;BME280;4386;51.236;6.742;2023-03-13T05:18:35;99562.72;;;13.08;89.25
8699;BME280;4386;51.236;6.742;2023-03-13T05:19:37;99559.06;;;13.09;89.29
8699;BME280;4386;51.236;6.742;2023-03-13T05:20:39;99558.94;;;13.11;89.60
8699;BME280;4386;51.236;6.742;2023-03-13T05:21:41;99557.09;;;13.11;89.36
8699;BME280;4386;51.236;6.742;2023-03-13T05:22:44;99563.25;;;13.12;89.07
8699;BME280;4386;51.236;6.742;2023-03-13T05:23:45;99570.22;;;13.13;89.39
8699;BME280;4386;51.236;6.742;2023-03-13T05:24:48;99575.53;;;13.13;89.36
8699;BME280;4386;51.236;6.742;2023-03-13T05:25:49;99565.75;;;13.13;89.22
8699;BME280;4386;51.236;6.742;2023-03-13T05:26:52;99562.25;;;13.13;89.27
8699;BME280;4386;51.236;6.742;2023-03-13T05:27:55;99553.28;;;13.14;89.22
8699;BME280;4386;51.236;6.742;2023-03-13T05:28:56;99553.13;;;13.15;89.28
8699;BME280;4386;51.236;6.742;2023-03-13T05:29:59;99553.94;;;13.16;89.37
8699;BME280;4386;51.236;6.742;2023-03-13T05:31:01;99550.28;;;13.17;89.21
8699;BME280;4386;51.236;6.742;2023-03-13T05:32:05;99551.97;;;13.18;89.36
8699;BME280;4386;51.236;6.742;2023-03-13T05:33:07;99560.59;;;13.20;89.38
8699;BME280;4386;51.236;6.742;2023-03-13T05:34:19;99556.13;;;13.20;89.36
8699;BME280;4386;51.236;6.742;2023-03-13T05:35:21;99558.78;;;13.20;89.30
8699;BME280;4386;51.236;6.742;2023-03-13T05:36:24;99549.94;;;13.20;89.33
8699;BME280;4386;51.236;6.742;2023-03-13T05:37:27;99546.31;;;13.21;89.36
8699;BME280;4386;51.236;6.742;2023-03-13T05:38:38;99557.78;;;13.21;89.62
8699;BME280;4386;51.236;6.742;2023-03-13T05:39:41;99551.63;;;13.21;89.29
8699;BME280;4386;51.236;6.742;2023-03-13T05:40:42;99557.78;;;13.21;89.25
8699;BME280;4386;51.236;6.742;2023-03-13T05:41:45;99560.25;;;13.23;89.25
8699;BME280;4386;51.236;6.742;2023-03-13T05:42:46;99553.31;;;13.22;89.14
8699;BME280;4386;51.236;6.742;2023-03-13T05:43:49;99558.44;;;13.23;89.26
8699;BME280;4386;51.236;6.742;2023-03-13T05:44:53;99554.94;;;13.23;89.21
8699;BME280;4386;51.236;6.742;2023-03-13T05:45:55;99559.28;;;13.24;89.31